sensor_id;sensor_type;location;lat;lon;timestamp;P1;durP1;ratioP1;P2;durP2;ratioP2
10687;SDS011;5392;42.688;23.298;2022-12-10T00:01:12;12.68;;;5.53;;
10687;SDS011;5392;42.688;23.298;2022-12-10T00:03:41;15.80;;;5.25;;
10687;SDS011;5392;42.688;23.298;2022-12-10T00:06:10;13.23;;;5.25;;
10687;SDS011;5392;42.688;23.298;2022-12-10T00:08:40;13.95;;;6.15;;
10687;SDS011;5392;42.688;23.298;2022-12-10T00:11:08;12.93;;;5.72;;
10687;SDS011;5392;42.688;23.298;2022-12-10T00:13:36;15.63;;;6.10;;
10687;SDS011;5392;42.688;23.298;2022-12-10T00:16:05;14.25;;;5.82;;
10687;SDS011;5392;42.688;23.298;2022-12-10T00:18:34;20.90;;;5.93;;
10687;SDS011;5392;42.688;23.298;2022-12-10T00:21:05;11.20;;;5.45;;
10687;SDS011;5392;42.688;23.298;2022-12-10T00:23:33;15.38;;;5.80;;
10687;SDS011;5392;42.688;23.298;2022-12-10T00:26:05;15.40;;;6.70;;
10687;SDS011;5392;42.688;23.298;2022-12-10T00:28:38;14.68;;;6.50;;
10687;SDS011;5392;42.688;23.298;2022-12-10T00:31:06;13.77;;;6.03;;
10687;SDS011;5392;42.688;23.298;2022-12-10T00:33:38;13.98;;;6.70;;
10687;SDS011;5392;42.688;23.298;2022-12-10T00:36:07;10.23;;;5.00;;
10687;SDS011;5392;42.688;23.298;2022-12-10T00:38:36;16.63;;;5.53;;
10687;SDS011;5392;42.688;23.298;2022-12-10T00:41:03;16.73;;;6.00;;
10687;SDS011;5392;42.688;23.298;2022-12-10T00:43:31;15.00;;;6.28;;
10687;SDS011;5392;42.688;23.298;2022-12-10T00:45:58;14.43;;;5.60;;
10687;SDS011;5392;42.688;23.298;2022-12-10T00:48:25;9.93;;;3.58;;
10687;SDS011;5392;42.688;23.298;2022-12-10T00:50:55;11.25;;;5.80;;
10687;SDS011;5392;42.688;23.298;2022-12-10T00:53:23;15.82;;;5.85;;
10687;SDS011;5392;42.688;23.298;2022-12-10T00:55:50;11.90;;;4.43;;
10687;SDS011;5392;42.688;23.298;2022-12-10T00:58:17;11.68;;;4.15;;
10687;SDS011;5392;42.688;23.298;2022-12-10T01:00:44;13.45;;;3.65;;
10687;SDS011;5392;42.688;23.298;2022-12-10T01:03:11;10.95;;;4.63;;
10687;SDS011;5392;42.688;23.298;2022-12-10T01:05:38;8.10;;;3.95;;
10687;SDS011;5392;42.688;23.298;2022-12-10T01:08:05;11.80;;;4.15;;
10687;SDS011;5392;42.688;23.298;2022-12-10T01:10:32;12.73;;;4.15;;
10687;SDS011;5392;42.688;23.298;2022-12-10T01:12:59;8.65;;;4.20;;
10687;SDS011;5392;42.688;23.298;2022-12-10T01:15:26;11.82;;;4.18;;
10687;SDS011;5392;42.688;23.298;2022-12-10T01:17:53;12.18;;;4.40;;
10687;SDS011;5392;42.688;23.298;2022-12-10T01:20:19;12.77;;;4.43;;
10687;SDS011;5392;42.688;23.298;2022-12-10T01:22:46;9.10;;;4.63;;
10687;SDS011;5392;42.688;23.298;2022-12-10T01:25:13;17.52;;;4.78;;
10687;SDS011;5392;42.688;23.298;2022-12-10T01:27:39;10.35;;;5.18;;
10687;SDS011;5392;42.688;23.298;2022-12-10T01:30:07;11.00;;;5.13;;
10687;SDS011;5392;42.688;23.298;2022-12-10T01:32:35;8.32;;;4.03;;
10687;SDS011;5392;42.688;23.298;2022-12-10T01:35:02;8.18;;;3.92;;
10687;SDS011;5392;42.688;23.298;2022-12-10T01:37:29;11.05;;;5.13;;
10687;SDS011;5392;42.688;23.298;2022-12-10T01:39:55;12.77;;;4.72;;
10687;SDS011;5392;42.688;23.298;2022-12-10T01:42:22;10.93;;;4.20;;
10687;SDS011;5392;42.688;23.298;2022-12-10T01:47:16;6.72;;;4.10;;
10687;SDS011;5392;42.688;23.298;2022-12-10T01:49:43;9.15;;;4.45;;
10687;SDS011;5392;42.688;23.298;2022-12-10T01:52:10;12.23;;;3.78;;
10687;SDS011;5392;42.688;23.298;2022-12-10T01:54:43;6.75;;;3.00;;
10687;SDS011;5392;42.688;23.298;2022-12-10T01:57:19;7.07;;;3.33;;
10687;SDS011;5392;42.688;23.298;2022-12-10T01:59:54;8.57;;;3.67;;
10687;SDS011;5392;42.688;23.298;2022-12-10T02:02:34;12.38;;;4.15;;
10687;SDS011;5392;42.688;23.298;2022-12-10T02:05:24;12.60;;;3.25;;
10687;SDS011;5392;42.688;23.298;2022-12-10T02:11:03;7.82;;;2.60;;
10687;SDS011;5392;42.688;23.298;2022-12-10T02:14:06;9.30;;;3.50;;
10687;SDS011;5392;42.688;23.298;2022-12-10T02:16:55;7.25;;;3.88;;
10687;SDS011;5392;42.688;23.298;2022-12-10T02:22:11;9.85;;;3.63;;
10687;SDS011;5392;42.688;23.298;2022-12-10T02:24:39;9.82;;;3.88;;
10687;SDS011;5392;42.688;23.298;2022-12-10T02:30:18;7.82;;;4.40;;
10687;SDS011;5392;42.688;23.298;2022-12-10T02:32:46;9.07;;;4.32;;
10687;SDS011;5392;42.688;23.298;2022-12-10T02:35:16;11.50;;;5.10;;
10687;SDS011;5392;42.688;23.298;2022-12-10T02:37:51;16.15;;;5.45;;
10687;SDS011;5392;42.688;23.298;2022-12-10T02:40:23;13.30;;;4.97;;
10687;SDS011;5392;42.688;23.298;2022-12-10T02:42:55;10.82;;;5.35;;
10687;SDS011;5392;42.688;23.298;2022-12-10T02:45:22;12.95;;;4.68;;
10687;SDS011;5392;42.688;23.298;2022-12-10T02:47:53;11.75;;;4.40;;
10687;SDS011;5392;42.688;23.298;2022-12-10T02:50:23;11.52;;;4.95;;
10687;SDS011;5392;42.688;23.298;2022-12-10T02:52:51;12.10;;;5.32;;
10687;SDS011;5392;42.688;23.298;2022-12-10T02:55:18;11.23;;;5.78;;
10687;SDS011;5392;42.688;23.298;2022-12-10T03:00:17;11.63;;;4.43;;
10687;SDS011;5392;42.688;23.298;2022-12-10T03:06:00;9.60;;;4.78;;
10687;SDS011;5392;42.688;23.298;2022-12-10T03:11:12;8.43;;;5.15;;
10687;SDS011;5392;42.688;23.298;2022-12-10T03:14:27;13.02;;;5.15;;
10687;SDS011;5392;42.688;23.298;2022-12-10T03:16:33;10.82;;;5.03;;
10687;SDS011;5392;42.688;23.298;2022-12-10T03:19:07;10.68;;;4.95;;
10687;SDS011;5392;42.688;23.298;2022-12-10T03:21:39;8.65;;;5.45;;
10687;SDS011;5392;42.688;23.298;2022-12-10T03:24:09;8.00;;;4.53;;
10687;SDS011;5392;42.688;23.298;2022-12-10T03:26:37;10.93;;;5.07;;
10687;SDS011;5392;42.688;23.298;2022-12-10T03:29:08;10.43;;;5.43;;
10687;SDS011;5392;42.688;23.298;2022-12-10T03:31:37;7.57;;;4.38;;
10687;SDS011;5392;42.688;23.298;2022-12-10T03:34:05;7.60;;;4.07;;
10687;SDS011;5392;42.688;23.298;2022-12-10T03:36:33;11.40;;;5.55;;
10687;SDS011;5392;42.688;23.298;2022-12-10T03:39:00;8.30;;;4.97;;
10687;SDS011;5392;42.688;23.298;2022-12-10T03:41:27;10.30;;;5.72;;
10687;SDS011;5392;42.688;23.298;2022-12-10T03:43:55;12.25;;;4.68;;
10687;SDS011;5392;42.688;23.298;2022-12-10T03:46:24;13.35;;;5.57;;
10687;SDS011;5392;42.688;23.298;2022-12-10T03:48:53;12.75;;;4.57;;
10687;SDS011;5392;42.688;23.298;2022-12-10T03:51:21;9.10;;;4.72;;
10687;SDS011;5392;42.688;23.298;2022-12-10T03:53:47;10.57;;;3.85;;
10687;SDS011;5392;42.688;23.298;2022-12-10T03:56:18;7.18;;;4.20;;
10687;SDS011;5392;42.688;23.298;2022-12-10T03:58:47;6.82;;;4.15;;
10687;SDS011;5392;42.688;23.298;2022-12-10T04:01:15;9.88;;;4.57;;
10687;SDS011;5392;42.688;23.298;2022-12-10T04:03:42;9.45;;;4.55;;
10687;SDS011;5392;42.688;23.298;2022-12-10T04:06:16;7.85;;;3.75;;
10687;SDS011;5392;42.688;23.298;2022-12-10T04:08:46;6.03;;;3.47;;
10687;SDS011;5392;42.688;23.298;2022-12-10T04:11:14;8.88;;;4.00;;
10687;SDS011;5392;42.688;23.298;2022-12-10T04:13:42;9.43;;;4.43;;
10687;SDS011;5392;42.688;23.298;2022-12-10T04:16:28;8.30;;;3.67;;
10687;SDS011;5392;42.688;23.298;2022-12-10T04:18:57;6.43;;;3.53;;
10687;SDS011;5392;42.688;23.298;2022-12-10T04:21:27;9.82;;;4.15;;
10687;SDS011;5392;42.688;23.298;2022-12-10T04:24:13;6.90;;;3.85;;
10687;SDS011;5392;42.688;23.298;2022-12-10T04:27:02;7.28;;;4.10;;
10687;SDS011;5392;42.688;23.298;2022-12-10T04:29:31;8.68;;;4.20;;
10687;SDS011;5392;42.688;23.298;2022-12-10T04:31:58;6.10;;;3.70;;
10687;SDS011;5392;42.688;23.298;2022-12-10T04:34:25;8.02;;;3.78;;
10687;SDS011;5392;42.688;23.298;2022-12-10T04:36:52;5.90;;;2.50;;
10687;SDS011;5392;42.688;23.298;2022-12-10T04:39:19;8.38;;;3.53;;
10687;SDS011;5392;42.688;23.298;2022-12-10T04:41:48;14.73;;;4.00;;
10687;SDS011;5392;42.688;23.298;2022-12-10T04:44:16;6.85;;;3.67;;
10687;SDS011;5392;42.688;23.298;2022-12-10T04:46:43;9.65;;;3.92;;
10687;SDS011;5392;42.688;23.298;2022-12-10T04:49:11;8.48;;;4.30;;
10687;SDS011;5392;42.688;23.298;2022-12-10T04:51:38;10.27;;;4.07;;
10687;SDS011;5392;42.688;23.298;2022-12-10T04:54:05;12.88;;;5.10;;
10687;SDS011;5392;42.688;23.298;2022-12-10T04:56:32;11.60;;;4.45;;
10687;SDS011;5392;42.688;23.298;2022-12-10T04:59:00;7.15;;;4.35;;
10687;SDS011;5392;42.688;23.298;2022-12-10T05:01:27;7.10;;;3.70;;
10687;SDS011;5392;42.688;23.298;2022-12-10T05:03:54;6.53;;;3.45;;
10687;SDS011;5392;42.688;23.298;2022-12-10T05:06:23;8.88;;;3.95;;
10687;SDS011;5392;42.688;23.298;2022-12-10T05:08:50;11.90;;;5.07;;
10687;SDS011;5392;42.688;23.298;2022-12-10T05:11:19;8.30;;;4.07;;
10687;SDS011;5392;42.688;23.298;2022-12-10T05:13:47;9.55;;;3.97;;
10687;SDS011;5392;42.688;23.298;2022-12-10T05:16:15;10.38;;;5.00;;
10687;SDS011;5392;42.688;23.298;2022-12-10T05:18:43;10.60;;;4.45;;
10687;SDS011;5392;42.688;23.298;2022-12-10T05:21:12;10.77;;;5.22;;
10687;SDS011;5392;42.688;23.298;2022-12-10T05:23:41;10.82;;;5.30;;
10687;SDS011;5392;42.688;23.298;2022-12-10T05:28:38;10.00;;;4.45;;
10687;SDS011;5392;42.688;23.298;2022-12-10T05:34:03;14.30;;;5.22;;
10687;SDS011;5392;42.688;23.298;2022-12-10T05:36:30;14.82;;;5.72;;
10687;SDS011;5392;42.688;23.298;2022-12-10T05:38:59;9.52;;;5.63;;
10687;SDS011;5392;42.688;23.298;2022-12-10T05:41:28;10.38;;;7.43;;
10687;SDS011;5392;42.688;23.298;2022-12-10T05:43:57;11.80;;;6.55;;
10687;SDS011;5392;42.688;23.298;2022-12-10T05:46:25;10.27;;;5.95;;
10687;SDS011;5392;42.688;23.298;2022-12-10T05:48:54;11.52;;;5.85;;
10687;SDS011;5392;42.688;23.298;2022-12-10T05:51:23;14.45;;;6.45;;
10687;SDS011;5392;42.688;23.298;2022-12-10T05:53:52;13.13;;;6.18;;
10687;SDS011;5392;42.688;23.298;2022-12-10T05:56:24;14.00;;;6.45;;
10687;SDS011;5392;42.688;23.298;2022-12-10T05:58:53;10.85;;;5.95;;
10687;SDS011;5392;42.688;23.298;2022-12-10T06:01:24;12.30;;;5.90;;
10687;SDS011;5392;42.688;23.298;2022-12-10T06:03:53;13.07;;;6.70;;
10687;SDS011;5392;42.688;23.298;2022-12-10T06:06:24;9.95;;;6.35;;
10687;SDS011;5392;42.688;23.298;2022-12-10T06:08:55;13.30;;;6.93;;
10687;SDS011;5392;42.688;23.298;2022-12-10T06:11:23;13.70;;;7.15;;
10687;SDS011;5392;42.688;23.298;2022-12-10T06:13:50;14.35;;;7.00;;
10687;SDS011;5392;42.688;23.298;2022-12-10T06:16:22;14.98;;;7.70;;
10687;SDS011;5392;42.688;23.298;2022-12-10T06:18:50;14.85;;;7.47;;
10687;SDS011;5392;42.688;23.298;2022-12-10T06:21:18;10.70;;;5.78;;
10687;SDS011;5392;42.688;23.298;2022-12-10T06:23:46;11.90;;;6.05;;
10687;SDS011;5392;42.688;23.298;2022-12-10T06:26:17;20.08;;;7.63;;
10687;SDS011;5392;42.688;23.298;2022-12-10T06:28:52;13.73;;;7.97;;
10687;SDS011;5392;42.688;23.298;2022-12-10T06:31:19;14.60;;;7.00;;
10687;SDS011;5392;42.688;23.298;2022-12-10T06:33:46;11.25;;;7.68;;
10687;SDS011;5392;42.688;23.298;2022-12-10T06:36:14;10.55;;;6.55;;
10687;SDS011;5392;42.688;23.298;2022-12-10T06:38:42;9.35;;;5.93;;
10687;SDS011;5392;42.688;23.298;2022-12-10T06:41:10;16.33;;;6.97;;
10687;SDS011;5392;42.688;23.298;2022-12-10T06:43:39;10.80;;;6.65;;
10687;SDS011;5392;42.688;23.298;2022-12-10T06:46:10;13.55;;;7.32;;
10687;SDS011;5392;42.688;23.298;2022-12-10T06:48:39;14.13;;;7.53;;
10687;SDS011;5392;42.688;23.298;2022-12-10T06:51:06;9.38;;;7.10;;
10687;SDS011;5392;42.688;23.298;2022-12-10T06:53:34;15.75;;;7.95;;
10687;SDS011;5392;42.688;23.298;2022-12-10T06:56:02;13.60;;;8.18;;
10687;SDS011;5392;42.688;23.298;2022-12-10T06:58:31;18.50;;;8.05;;
10687;SDS011;5392;42.688;23.298;2022-12-10T07:01:05;14.77;;;7.65;;
10687;SDS011;5392;42.688;23.298;2022-12-10T07:03:33;12.23;;;7.25;;
10687;SDS011;5392;42.688;23.298;2022-12-10T07:06:01;12.80;;;6.90;;
10687;SDS011;5392;42.688;23.298;2022-12-10T07:08:30;12.70;;;6.97;;
10687;SDS011;5392;42.688;23.298;2022-12-10T07:10:57;8.63;;;5.63;;
10687;SDS011;5392;42.688;23.298;2022-12-10T07:13:24;11.38;;;6.35;;
10687;SDS011;5392;42.688;23.298;2022-12-10T07:15:56;6.68;;;5.78;;
10687;SDS011;5392;42.688;23.298;2022-12-10T07:18:24;10.85;;;6.18;;
10687;SDS011;5392;42.688;23.298;2022-12-10T07:20:51;11.07;;;6.60;;
10687;SDS011;5392;42.688;23.298;2022-12-10T07:23:18;6.65;;;5.57;;
10687;SDS011;5392;42.688;23.298;2022-12-10T07:25:45;11.02;;;5.63;;
10687;SDS011;5392;42.688;23.298;2022-12-10T07:28:12;7.88;;;6.03;;
10687;SDS011;5392;42.688;23.298;2022-12-10T07:30:39;9.25;;;6.20;;
10687;SDS011;5392;42.688;23.298;2022-12-10T07:33:06;16.15;;;7.47;;
10687;SDS011;5392;42.688;23.298;2022-12-10T07:35:33;6.65;;;5.78;;
10687;SDS011;5392;42.688;23.298;2022-12-10T07:38:00;10.80;;;6.20;;
10687;SDS011;5392;42.688;23.298;2022-12-10T07:40:26;7.82;;;6.03;;
10687;SDS011;5392;42.688;23.298;2022-12-10T07:42:53;7.55;;;5.32;;
10687;SDS011;5392;42.688;23.298;2022-12-10T07:45:22;8.93;;;6.38;;
10687;SDS011;5392;42.688;23.298;2022-12-10T07:47:49;10.68;;;6.28;;
10687;SDS011;5392;42.688;23.298;2022-12-10T07:50:15;13.45;;;7.60;;
10687;SDS011;5392;42.688;23.298;2022-12-10T07:52:42;15.50;;;7.68;;
10687;SDS011;5392;42.688;23.298;2022-12-10T07:55:09;9.75;;;6.75;;
10687;SDS011;5392;42.688;23.298;2022-12-10T07:57:36;10.57;;;7.22;;
10687;SDS011;5392;42.688;23.298;2022-12-10T08:00:03;8.10;;;6.50;;
10687;SDS011;5392;42.688;23.298;2022-12-10T08:02:30;11.13;;;6.05;;
10687;SDS011;5392;42.688;23.298;2022-12-10T08:04:57;9.40;;;6.82;;
10687;SDS011;5392;42.688;23.298;2022-12-10T08:07:24;13.48;;;7.88;;
10687;SDS011;5392;42.688;23.298;2022-12-10T08:09:50;11.40;;;6.60;;
10687;SDS011;5392;42.688;23.298;2022-12-10T08:12:17;9.70;;;6.45;;
10687;SDS011;5392;42.688;23.298;2022-12-10T08:14:44;12.43;;;6.50;;
10687;SDS011;5392;42.688;23.298;2022-12-10T08:17:11;11.45;;;6.80;;
10687;SDS011;5392;42.688;23.298;2022-12-10T08:19:38;14.30;;;8.32;;
10687;SDS011;5392;42.688;23.298;2022-12-10T08:22:04;13.43;;;8.00;;
10687;SDS011;5392;42.688;23.298;2022-12-10T08:24:31;10.85;;;7.00;;
10687;SDS011;5392;42.688;23.298;2022-12-10T08:26:58;13.65;;;6.80;;
10687;SDS011;5392;42.688;23.298;2022-12-10T08:29:24;12.63;;;7.95;;
10687;SDS011;5392;42.688;23.298;2022-12-10T08:31:51;14.45;;;8.35;;
10687;SDS011;5392;42.688;23.298;2022-12-10T08:34:18;10.63;;;7.60;;
10687;SDS011;5392;42.688;23.298;2022-12-10T08:36:45;13.63;;;6.93;;
10687;SDS011;5392;42.688;23.298;2022-12-10T08:39:12;14.80;;;7.35;;
10687;SDS011;5392;42.688;23.298;2022-12-10T08:41:45;11.25;;;8.13;;
10687;SDS011;5392;42.688;23.298;2022-12-10T08:44:13;11.65;;;7.07;;
10687;SDS011;5392;42.688;23.298;2022-12-10T08:46:40;11.00;;;8.18;;
10687;SDS011;5392;42.688;23.298;2022-12-10T08:49:07;12.38;;;8.00;;
10687;SDS011;5392;42.688;23.298;2022-12-10T08:51:34;17.58;;;9.60;;
10687;SDS011;5392;42.688;23.298;2022-12-10T08:54:00;17.27;;;10.15;;
10687;SDS011;5392;42.688;23.298;2022-12-10T08:56:28;14.38;;;8.98;;
10687;SDS011;5392;42.688;23.298;2022-12-10T08:58:56;13.80;;;9.63;;
10687;SDS011;5392;42.688;23.298;2022-12-10T09:01:23;14.95;;;9.70;;
10687;SDS011;5392;42.688;23.298;2022-12-10T09:03:50;14.18;;;9.93;;
10687;SDS011;5392;42.688;23.298;2022-12-10T09:06:18;12.82;;;9.43;;
10687;SDS011;5392;42.688;23.298;2022-12-10T09:08:47;18.23;;;9.75;;
10687;SDS011;5392;42.688;23.298;2022-12-10T09:11:16;17.75;;;10.65;;
10687;SDS011;5392;42.688;23.298;2022-12-10T09:13:47;13.43;;;9.13;;
10687;SDS011;5392;42.688;23.298;2022-12-10T09:16:14;14.57;;;9.75;;
10687;SDS011;5392;42.688;23.298;2022-12-10T09:18:41;18.45;;;9.32;;
10687;SDS011;5392;42.688;23.298;2022-12-10T09:21:09;16.92;;;9.23;;
10687;SDS011;5392;42.688;23.298;2022-12-10T09:23:39;12.27;;;8.45;;
10687;SDS011;5392;42.688;23.298;2022-12-10T09:26:07;11.27;;;8.23;;
10687;SDS011;5392;42.688;23.298;2022-12-10T09:28:36;15.07;;;7.07;;
10687;SDS011;5392;42.688;23.298;2022-12-10T09:31:04;10.73;;;7.03;;
10687;SDS011;5392;42.688;23.298;2022-12-10T09:33:40;9.38;;;6.38;;
10687;SDS011;5392;42.688;23.298;2022-12-10T09:36:07;8.90;;;7.82;;
10687;SDS011;5392;42.688;23.298;2022-12-10T09:38:39;9.40;;;7.97;;
10687;SDS011;5392;42.688;23.298;2022-12-10T09:46:56;9.13;;;6.45;;
10687;SDS011;5392;42.688;23.298;2022-12-10T09:52:21;6.97;;;6.22;;
10687;SDS011;5392;42.688;23.298;2022-12-10T09:54:55;7.45;;;5.78;;
10687;SDS011;5392;42.688;23.298;2022-12-10T09:57:29;8.63;;;5.70;;
10687;SDS011;5392;42.688;23.298;2022-12-10T10:00:03;8.50;;;5.68;;
10687;SDS011;5392;42.688;23.298;2022-12-10T10:02:34;9.48;;;7.07;;
10687;SDS011;5392;42.688;23.298;2022-12-10T10:07:44;10.65;;;6.00;;
10687;SDS011;5392;42.688;23.298;2022-12-10T10:10:20;8.63;;;5.30;;
10687;SDS011;5392;42.688;23.298;2022-12-10T10:13:14;5.03;;;4.60;;
10687;SDS011;5392;42.688;23.298;2022-12-10T10:15:47;11.02;;;4.97;;
10687;SDS011;5392;42.688;23.298;2022-12-10T10:20:48;7.40;;;4.85;;
10687;SDS011;5392;42.688;23.298;2022-12-10T10:23:16;9.02;;;5.60;;
10687;SDS011;5392;42.688;23.298;2022-12-10T10:25:44;8.82;;;5.38;;
10687;SDS011;5392;42.688;23.298;2022-12-10T10:28:14;8.20;;;6.28;;
10687;SDS011;5392;42.688;23.298;2022-12-10T10:30:47;8.20;;;5.82;;
10687;SDS011;5392;42.688;23.298;2022-12-10T10:33:14;6.47;;;4.85;;
10687;SDS011;5392;42.688;23.298;2022-12-10T10:35:47;8.38;;;5.15;;
10687;SDS011;5392;42.688;23.298;2022-12-10T10:38:18;5.85;;;4.90;;
10687;SDS011;5392;42.688;23.298;2022-12-10T10:40:50;8.13;;;5.07;;
10687;SDS011;5392;42.688;23.298;2022-12-10T10:43:24;5.47;;;4.97;;
10687;SDS011;5392;42.688;23.298;2022-12-10T10:45:58;7.95;;;4.88;;
10687;SDS011;5392;42.688;23.298;2022-12-10T10:48:28;8.55;;;5.50;;
10687;SDS011;5392;42.688;23.298;2022-12-10T10:51:18;8.32;;;4.68;;
10687;SDS011;5392;42.688;23.298;2022-12-10T10:53:48;10.23;;;5.97;;
10687;SDS011;5392;42.688;23.298;2022-12-10T10:56:22;10.18;;;5.05;;
10687;SDS011;5392;42.688;23.298;2022-12-10T11:01:20;8.07;;;6.10;;
10687;SDS011;5392;42.688;23.298;2022-12-10T11:03:49;6.47;;;4.30;;
10687;SDS011;5392;42.688;23.298;2022-12-10T11:06:20;12.90;;;5.95;;
10687;SDS011;5392;42.688;23.298;2022-12-10T11:09:06;11.27;;;5.45;;
10687;SDS011;5392;42.688;23.298;2022-12-10T11:11:39;7.80;;;5.03;;
10687;SDS011;5392;42.688;23.298;2022-12-10T11:14:14;7.45;;;4.72;;
10687;SDS011;5392;42.688;23.298;2022-12-10T11:16:42;5.65;;;2.85;;
10687;SDS011;5392;42.688;23.298;2022-12-10T11:19:16;5.85;;;3.45;;
10687;SDS011;5392;42.688;23.298;2022-12-10T11:21:47;6.57;;;4.10;;
10687;SDS011;5392;42.688;23.298;2022-12-10T11:24:16;8.90;;;3.85;;
10687;SDS011;5392;42.688;23.298;2022-12-10T11:32:20;8.27;;;3.17;;
10687;SDS011;5392;42.688;23.298;2022-12-10T11:35:14;9.60;;;3.80;;
10687;SDS011;5392;42.688;23.298;2022-12-10T11:38:22;5.32;;;3.60;;
10687;SDS011;5392;42.688;23.298;2022-12-10T11:43:51;6.47;;;3.15;;
10687;SDS011;5392;42.688;23.298;2022-12-10T11:49:21;5.50;;;2.95;;
10687;SDS011;5392;42.688;23.298;2022-12-10T11:52:12;3.60;;;2.85;;
10687;SDS011;5392;42.688;23.298;2022-12-10T12:00:58;6.85;;;3.08;;
10687;SDS011;5392;42.688;23.298;2022-12-10T12:04:10;9.75;;;3.97;;
10687;SDS011;5392;42.688;23.298;2022-12-10T12:12:33;7.65;;;4.53;;
10687;SDS011;5392;42.688;23.298;2022-12-10T12:15:24;10.65;;;5.45;;
10687;SDS011;5392;42.688;23.298;2022-12-10T12:21:03;11.63;;;5.55;;
10687;SDS011;5392;42.688;23.298;2022-12-10T12:26:08;11.20;;;5.28;;
10687;SDS011;5392;42.688;23.298;2022-12-10T12:28:41;7.63;;;6.13;;
10687;SDS011;5392;42.688;23.298;2022-12-10T12:31:18;8.35;;;4.20;;
10687;SDS011;5392;42.688;23.298;2022-12-10T12:37:09;5.53;;;4.03;;
10687;SDS011;5392;42.688;23.298;2022-12-10T12:39:46;6.95;;;3.65;;
10687;SDS011;5392;42.688;23.298;2022-12-10T12:42:22;5.80;;;4.00;;
10687;SDS011;5392;42.688;23.298;2022-12-10T12:50:03;7.97;;;4.30;;
10687;SDS011;5392;42.688;23.298;2022-12-10T12:52:40;9.90;;;5.15;;
10687;SDS011;5392;42.688;23.298;2022-12-10T12:55:32;6.40;;;4.45;;
10687;SDS011;5392;42.688;23.298;2022-12-10T12:58:20;8.70;;;5.05;;
10687;SDS011;5392;42.688;23.298;2022-12-10T13:00:49;11.38;;;5.82;;
10687;SDS011;5392;42.688;23.298;2022-12-10T13:03:32;11.30;;;5.82;;
10687;SDS011;5392;42.688;23.298;2022-12-10T13:06:12;12.02;;;5.82;;
10687;SDS011;5392;42.688;23.298;2022-12-10T13:08:50;7.97;;;5.85;;
10687;SDS011;5392;42.688;23.298;2022-12-10T13:11:34;13.07;;;5.70;;
10687;SDS011;5392;42.688;23.298;2022-12-10T13:14:04;17.20;;;7.47;;
10687;SDS011;5392;42.688;23.298;2022-12-10T13:29:55;12.98;;;6.38;;
10687;SDS011;5392;42.688;23.298;2022-12-10T13:35:16;13.38;;;8.02;;
10687;SDS011;5392;42.688;23.298;2022-12-10T13:43:27;17.98;;;7.63;;
10687;SDS011;5392;42.688;23.298;2022-12-10T13:46:20;10.27;;;6.63;;
10687;SDS011;5392;42.688;23.298;2022-12-10T13:48:54;12.32;;;6.15;;
10687;SDS011;5392;42.688;23.298;2022-12-10T14:08:55;22.23;;;9.98;;
10687;SDS011;5392;42.688;23.298;2022-12-10T14:11:28;22.38;;;12.80;;
10687;SDS011;5392;42.688;23.298;2022-12-10T14:14:02;21.27;;;8.32;;
10687;SDS011;5392;42.688;23.298;2022-12-10T14:16:33;29.50;;;12.10;;
10687;SDS011;5392;42.688;23.298;2022-12-10T14:19:06;17.45;;;8.50;;
10687;SDS011;5392;42.688;23.298;2022-12-10T14:21:38;18.05;;;9.70;;
10687;SDS011;5392;42.688;23.298;2022-12-10T14:24:27;15.38;;;8.35;;
10687;SDS011;5392;42.688;23.298;2022-12-10T14:26:58;16.08;;;9.43;;
10687;SDS011;5392;42.688;23.298;2022-12-10T14:30:31;20.40;;;10.77;;
10687;SDS011;5392;42.688;23.298;2022-12-10T14:32:43;18.92;;;11.60;;
10687;SDS011;5392;42.688;23.298;2022-12-10T14:35:22;20.25;;;8.77;;
10687;SDS011;5392;42.688;23.298;2022-12-10T14:37:52;27.70;;;9.82;;
10687;SDS011;5392;42.688;23.298;2022-12-10T14:40:28;35.92;;;20.20;;
10687;SDS011;5392;42.688;23.298;2022-12-10T14:43:03;17.13;;;8.57;;
10687;SDS011;5392;42.688;23.298;2022-12-10T14:45:55;15.10;;;9.98;;
10687;SDS011;5392;42.688;23.298;2022-12-10T14:48:26;18.35;;;8.25;;
10687;SDS011;5392;42.688;23.298;2022-12-10T14:50:55;14.27;;;8.45;;
10687;SDS011;5392;42.688;23.298;2022-12-10T14:53:45;14.70;;;8.18;;
10687;SDS011;5392;42.688;23.298;2022-12-10T14:56:22;19.52;;;8.68;;
10687;SDS011;5392;42.688;23.298;2022-12-10T15:01:33;14.32;;;9.25;;
10687;SDS011;5392;42.688;23.298;2022-12-10T15:04:05;11.32;;;6.78;;
10687;SDS011;5392;42.688;23.298;2022-12-10T15:06:38;13.30;;;7.60;;
10687;SDS011;5392;42.688;23.298;2022-12-10T15:09:09;13.70;;;9.57;;
10687;SDS011;5392;42.688;23.298;2022-12-10T15:11:52;14.27;;;9.07;;
10687;SDS011;5392;42.688;23.298;2022-12-10T15:14:21;41.83;;;29.92;;
10687;SDS011;5392;42.688;23.298;2022-12-10T15:16:49;29.77;;;16.58;;
10687;SDS011;5392;42.688;23.298;2022-12-10T15:19:23;22.25;;;11.10;;
10687;SDS011;5392;42.688;23.298;2022-12-10T15:24:47;26.85;;;13.77;;
10687;SDS011;5392;42.688;23.298;2022-12-10T15:27:15;26.70;;;14.88;;
10687;SDS011;5392;42.688;23.298;2022-12-10T15:30:21;21.02;;;13.95;;
10687;SDS011;5392;42.688;23.298;2022-12-10T15:33:02;19.52;;;13.10;;
10687;SDS011;5392;42.688;23.298;2022-12-10T15:35:34;22.55;;;11.30;;
10687;SDS011;5392;42.688;23.298;2022-12-10T15:38:02;27.10;;;11.15;;
10687;SDS011;5392;42.688;23.298;2022-12-10T15:40:29;18.40;;;11.07;;
10687;SDS011;5392;42.688;23.298;2022-12-10T15:43:11;23.23;;;15.43;;
10687;SDS011;5392;42.688;23.298;2022-12-10T15:45:48;21.90;;;11.25;;
10687;SDS011;5392;42.688;23.298;2022-12-10T15:48:16;16.40;;;11.20;;
10687;SDS011;5392;42.688;23.298;2022-12-10T15:50:43;14.70;;;9.48;;
10687;SDS011;5392;42.688;23.298;2022-12-10T15:53:12;21.10;;;11.50;;
10687;SDS011;5392;42.688;23.298;2022-12-10T15:55:40;15.57;;;9.65;;
10687;SDS011;5392;42.688;23.298;2022-12-10T15:58:11;36.47;;;20.58;;
10687;SDS011;5392;42.688;23.298;2022-12-10T16:00:38;14.82;;;10.32;;
10687;SDS011;5392;42.688;23.298;2022-12-10T16:03:10;26.08;;;14.68;;
10687;SDS011;5392;42.688;23.298;2022-12-10T16:05:39;25.23;;;14.00;;
10687;SDS011;5392;42.688;23.298;2022-12-10T16:08:15;19.20;;;11.95;;
10687;SDS011;5392;42.688;23.298;2022-12-10T16:10:45;23.85;;;15.00;;
10687;SDS011;5392;42.688;23.298;2022-12-10T16:13:20;35.28;;;16.65;;
10687;SDS011;5392;42.688;23.298;2022-12-10T16:15:54;32.30;;;15.27;;
10687;SDS011;5392;42.688;23.298;2022-12-10T16:18:24;24.30;;;15.93;;
10687;SDS011;5392;42.688;23.298;2022-12-10T16:20:57;29.23;;;15.55;;
10687;SDS011;5392;42.688;23.298;2022-12-10T16:23:24;21.50;;;12.60;;
10687;SDS011;5392;42.688;23.298;2022-12-10T16:25:50;20.52;;;11.02;;
10687;SDS011;5392;42.688;23.298;2022-12-10T16:28:18;21.77;;;12.65;;
10687;SDS011;5392;42.688;23.298;2022-12-10T16:33:18;22.88;;;13.52;;
10687;SDS011;5392;42.688;23.298;2022-12-10T16:35:49;22.67;;;14.88;;
10687;SDS011;5392;42.688;23.298;2022-12-10T16:38:18;27.83;;;14.93;;
10687;SDS011;5392;42.688;23.298;2022-12-10T16:40:52;20.88;;;15.85;;
10687;SDS011;5392;42.688;23.298;2022-12-10T16:43:22;27.25;;;17.27;;
10687;SDS011;5392;42.688;23.298;2022-12-10T16:45:51;29.85;;;15.63;;
10687;SDS011;5392;42.688;23.298;2022-12-10T16:48:19;28.63;;;18.90;;
10687;SDS011;5392;42.688;23.298;2022-12-10T16:50:46;19.90;;;13.85;;
10687;SDS011;5392;42.688;23.298;2022-12-10T16:53:16;28.65;;;16.92;;
10687;SDS011;5392;42.688;23.298;2022-12-10T16:55:52;27.25;;;16.80;;
10687;SDS011;5392;42.688;23.298;2022-12-10T16:58:20;24.13;;;16.50;;
10687;SDS011;5392;42.688;23.298;2022-12-10T17:00:49;21.65;;;14.82;;
10687;SDS011;5392;42.688;23.298;2022-12-10T17:03:18;23.77;;;16.25;;
10687;SDS011;5392;42.688;23.298;2022-12-10T17:06:00;33.53;;;19.10;;
10687;SDS011;5392;42.688;23.298;2022-12-10T17:08:30;33.97;;;19.33;;